Terminal Aerodrome Forecast
Issued by NWS Bismarck, ND

Home | Current Version | Previous Version | Text Only | Print | Product List | Glossary Off
Versions: 1 2 3 4 5 6 7 8 9 10 11 12 13 14

000
FTUS43 KBIS 300119 AAA
TAFBIS
TAF AMD
KBIS 300119Z 3001/3024 30011KT P6SM SKC
     FM300400 27004KT P6SM SKC
     FM301600 28011KT P6SM FEW090=

USA.gov is the U.S. government's official web portal to all federal, state and local government web resources and services.